»·PEaware :: N22CD S40-S23

N22CD :: S40-S23

FLIGHT INFORMATION

Flight Status: Arrived
Operator: Privately registered:
United States
More flights under this callsign
Pilot: Dan A. (12711)
Aircraft: CIRRUS SR-22 TURBO
(S22T)
More flights by this aircraft type
Origin: S40 Prosser
United States
Destination: S23 Ione Mun
United States
More flights between these airports :: More routes between these airports
Route: +BENTY V298 PSC V204 GEG V112 CEMOM
File this flight plan on PilotEdge
Remarks:
Altitude:
(Current/Filed)
7,000ft
Speed:
(Current/Filed)
160kts
Departed: 21-Nov-20 12:31 PM
Arrived: 21-Nov-20 01:49 PM
Distance/Time
Traveled:
178nm/1:18
Distance/Time
To Go:
Arrived

Flight Plot

Page will automatically refresh every two minutes.

Flight plan parsing failed; only flown route is shown


Map Options




Map Legend


Flown Route
Filed Route
Departure Airport
Arrival Airport
Navaid (VOR, NDB)
Fix

Horizontal Profiles

Position Reports

Time Latitude Longitude Heading Altitude Ground
Speed
21-Nov-20 11:54 46.212549 -119.788566 179 684ft 0kts
21-Nov-20 11:55 46.212549 -119.788566 179 684ft 0kts
21-Nov-20 11:56 46.212549 -119.788566 179 684ft 0kts
21-Nov-20 11:57 46.212549 -119.788566 179 684ft 0kts
21-Nov-20 11:58 46.212549 -119.788566 179 684ft 0kts
21-Nov-20 11:59 46.212549 -119.788566 179 684ft 0kts
21-Nov-20 12:00 46.212549 -119.788566 179 684ft 0kts
21-Nov-20 12:01 46.212549 -119.788566 179 684ft 0kts
21-Nov-20 12:02 46.212549 -119.788566 179 684ft 0kts
21-Nov-20 12:03 46.212549 -119.788566 179 684ft 0kts
21-Nov-20 12:04 46.212549 -119.788566 179 684ft 0kts
21-Nov-20 12:05 46.212549 -119.788566 179 684ft 0kts
21-Nov-20 12:06 46.212549 -119.788566 179 684ft 0kts
21-Nov-20 12:07 46.212549 -119.788566 179 684ft 0kts
21-Nov-20 12:08 46.212549 -119.788566 179 684ft 0kts
21-Nov-20 12:09 46.212549 -119.788566 179 684ft 0kts
21-Nov-20 12:11 46.212549 -119.788566 179 684ft 0kts
21-Nov-20 12:12 46.212549 -119.788566 179 684ft 0kts
21-Nov-20 12:13 46.212549 -119.788566 179 684ft 0kts
21-Nov-20 12:14 46.212549 -119.788566 179 684ft 0kts
21-Nov-20 12:15 46.212549 -119.788566 179 684ft 0kts
21-Nov-20 12:16 46.212549 -119.788566 179 684ft 0kts
21-Nov-20 12:17 46.212549 -119.788566 179 684ft 0kts
21-Nov-20 12:18 46.212549 -119.788566 179 684ft 0kts
21-Nov-20 12:19 46.212549 -119.788566 179 684ft 0kts
21-Nov-20 12:20 46.212549 -119.788566 179 684ft 0kts
21-Nov-20 12:21 46.212549 -119.788566 179 684ft 0kts
21-Nov-20 12:22 46.212549 -119.788566 179 684ft 0kts
21-Nov-20 12:23 46.212549 -119.788566 179 684ft 0kts
21-Nov-20 12:24 46.212549 -119.788566 179 684ft 0kts
21-Nov-20 12:24 46.212549 -119.788566 179 684ft 0kts
21-Nov-20 12:26 46.212549 -119.788566 179 684ft 0kts
21-Nov-20 12:26 46.212950 -119.788594 273 685ft 6kts
21-Nov-20 12:28 46.213044 -119.788755 347 685ft 0kts
21-Nov-20 12:28 46.213044 -119.788755 347 685ft 0kts
21-Nov-20 12:29 46.213044 -119.788755 347 685ft 0kts
21-Nov-20 12:31 46.213268 -119.802934 259 789ft 95kts
21-Nov-20 12:31 46.201453 -119.827753 166 1895ft 91kts
21-Nov-20 12:32 46.203756 -119.798602 41 2947ft 93kts
21-Nov-20 12:33 46.218055 -119.764730 66 3986ft 95kts
21-Nov-20 12:34 46.225985 -119.725505 70 5015ft 97kts
21-Nov-20 12:35 46.233374 -119.684865 70 6164ft 99kts
21-Nov-20 12:36 46.241198 -119.641557 71 7053ft 126kts
21-Nov-20 12:37 46.252176 -119.579925 72 7015ft 160kts
21-Nov-20 12:38 46.263747 -119.515029 72 7009ft 162kts
21-Nov-20 12:39 46.275237 -119.450409 72 7009ft 163kts
21-Nov-20 12:40 46.278767 -119.384189 89 7009ft 164kts
21-Nov-20 12:41 46.276698 -119.317529 90 7009ft 164kts
21-Nov-20 12:42 46.274595 -119.250920 90 7010ft 164kts
21-Nov-20 12:43 46.272454 -119.184193 89 7012ft 163kts
21-Nov-20 12:44 46.272699 -119.118002 54 7019ft 157kts
21-Nov-20 12:45 46.307556 -119.079260 34 7008ft 157kts
21-Nov-20 12:46 46.346066 -119.039593 33 7020ft 167kts
21-Nov-20 12:47 46.387439 -118.997048 32 7016ft 168kts
21-Nov-20 12:48 46.429219 -118.954012 32 7018ft 172kts
21-Nov-20 12:49 46.471677 -118.910185 32 7018ft 174kts
21-Nov-20 12:50 46.513968 -118.866449 32 7018ft 175kts
21-Nov-20 12:51 46.556902 -118.821963 31 7018ft 176kts
21-Nov-20 12:52 46.599891 -118.777316 31 7015ft 177kts
21-Nov-20 12:53 46.642528 -118.732964 30 7012ft 175kts
21-Nov-20 12:54 46.684959 -118.688757 30 7006ft 172kts
21-Nov-20 12:55 46.726568 -118.645322 29 7002ft 169kts
21-Nov-20 12:56 46.767400 -118.602630 29 6999ft 164kts
21-Nov-20 12:57 46.806700 -118.561455 30 7009ft 160kts
21-Nov-20 12:58 46.845506 -118.520701 30 7011ft 159kts
21-Nov-20 12:59 46.884051 -118.480152 30 7011ft 159kts
21-Nov-20 13:00 46.922168 -118.438776 34 7006ft 159kts
21-Nov-20 13:01 46.958593 -118.393522 35 6999ft 158kts
21-Nov-20 13:02 46.994800 -118.348438 36 6990ft 156kts
21-Nov-20 13:03 47.030151 -118.304341 37 6981ft 154kts
21-Nov-20 13:04 47.065114 -118.260587 38 6979ft 153kts
21-Nov-20 13:05 47.099818 -118.217103 38 6979ft 153kts
21-Nov-20 13:06 47.134549 -118.173517 38 6983ft 153kts
21-Nov-20 13:07 47.169729 -118.129291 38 6982ft 153kts
21-Nov-20 13:08 47.206244 -118.083340 38 6992ft 170kts
21-Nov-20 13:09 47.246273 -118.032799 38 6991ft 177kts
21-Nov-20 13:10 47.287042 -117.981236 38 6990ft 177kts
21-Nov-20 13:11 47.327344 -117.930167 38 6990ft 177kts
21-Nov-20 13:12 47.366854 -117.879998 38 6990ft 178kts
21-Nov-20 13:13 47.404334 -117.832311 38 6990ft 178kts
21-Nov-20 13:14 47.441769 -117.784591 38 6991ft 178kts
21-Nov-20 13:15 47.479151 -117.736844 38 6991ft 178kts
21-Nov-20 13:16 47.516615 -117.688898 38 6991ft 178kts
21-Nov-20 13:17 47.554004 -117.640955 38 6991ft 178kts
21-Nov-20 13:18 47.596069 -117.603828 23 6991ft 177kts
21-Nov-20 13:19 47.640070 -117.571214 23 6994ft 176kts
21-Nov-20 13:20 47.684061 -117.538528 22 6998ft 176kts
21-Nov-20 13:21 47.727810 -117.505938 21 7007ft 174kts
21-Nov-20 13:22 47.770798 -117.473890 21 7013ft 171kts
21-Nov-20 13:23 47.813019 -117.442359 21 7017ft 168kts
21-Nov-20 13:24 47.854718 -117.411155 21 7018ft 166kts
21-Nov-20 13:25 47.897517 -117.394666 353 7021ft 159kts
21-Nov-20 13:26 47.941894 -117.395568 353 7018ft 159kts
21-Nov-20 13:27 47.986283 -117.396558 353 7018ft 159kts
21-Nov-20 13:28 48.030901 -117.397568 353 7018ft 159kts
21-Nov-20 13:29 48.076340 -117.398600 353 7018ft 159kts
21-Nov-20 13:30 48.121624 -117.399633 353 7019ft 159kts
21-Nov-20 13:31 48.167330 -117.400677 353 7019ft 160kts
21-Nov-20 13:32 48.213633 -117.401734 353 7019ft 160kts
21-Nov-20 13:33 48.260389 -117.402793 353 7019ft 160kts
21-Nov-20 13:34 48.306681 -117.403841 353 7014ft 152kts
21-Nov-20 13:35 48.343075 -117.404666 351 7020ft 117kts
21-Nov-20 13:36 48.379887 -117.405559 352 7023ft 130kts
21-Nov-20 13:37 48.420658 -117.406509 353 6617ft 151kts
21-Nov-20 13:38 48.466312 -117.407534 354 5906ft 157kts
21-Nov-20 13:39 48.511307 -117.408540 354 5509ft 143kts
21-Nov-20 13:40 48.551199 -117.409481 353 5516ft 134kts
21-Nov-20 13:41 48.590216 -117.400626 1 5478ft 136kts
21-Nov-20 13:42 48.629090 -117.392426 16 5418ft 140kts
21-Nov-20 13:43 48.664672 -117.364881 18 5352ft 142kts
21-Nov-20 13:44 48.704875 -117.362191 342 5055ft 146kts
21-Nov-20 13:45 48.747617 -117.375096 341 4071ft 140kts
21-Nov-20 13:46 48.756499 -117.414975 198 2936ft 131kts
21-Nov-20 13:47 48.724702 -117.418285 174 2329ft 76kts
21-Nov-20 13:48 48.705696 -117.412383 155 2110ft 15kts
21-Nov-20 13:49 48.705303 -117.412178 196 2109ft 0kts

Navigation Log

Ident Type
Flight plan parsing failed, navigation log unavailable